To NAV CANADA Home Page Login to a new session Search on AWWS site Feedback and Comments Disclaimer Vers la page française équivalente Tips FAQ What's new on the site To the Forecasts and Observations / NOTAM section To "File a Flight Plan" website Publications and other links Update of the User's profile FIC Telephone Numbers My Weather Data Folder Route Weather Data Regional Weather Data Local Weather Data To the Forecasts and Observations / NOTAM section
Request Generated 07/29/2016 at 15:54:17 UTC . Weather information available at that time is displayed.

METAR/TAF

HIGH LEVEL/AB    (show WxCam)

METAR CYOJ 291500Z 00000KT 15SM FEW100 BKN260 17/15 A2985 RMK AC1CI5
AC TR SLP114 DENSITY ALT 1700FT=
METAR CYOJ 291400Z 13003KT 100V170 15SM FEW100 SCT260 15/14 A2986 RMK
ACC1CI3 ACC TR SLP117 DENSITY ALT 1400FT=
METAR CYOJ 291300Z 15002KT 15SM FEW060 FEW100 FEW260 12/12 A2987 RMK
SC1ACC1CI2 SC TR ACC TR SLP121=

TAF CYOJ 291238Z 2913/3001 VRB03KT P6SM FEW060 PROB30 2913/2914 3/4SM
BR
FM291800 15005KT P6SM SCT050 TEMPO 2918/2921 BKN050
FM292100 14008KT P6SM -SHRA BKN060 PROB30 2921/3001 2SM TSRA
BKN040CB
RMK FCST BASED ON AUTO OBS. NXT FCST BY 291900Z=
Your time UTC time
Weather data provided by Environment Canada and NAV CANADA